Time;durP1;ratioP1;P1;durP2;ratioP2;P2;SDS_P1;SDS_P2;PMS_P1;PMS_P2;Temp;Humidity;BMP_temperature;BMP_pressure;BME280_temperature;BME280_humidity;BME280_pressure;Samples;Min_cycle;Max_cycle;Signal;HPM_P1;HPM_P2
2021/08/24 00:01:22;;;;;;;6.23;3.40;;;;;;;17.00;60.26;98579.19;8385978;28;20223;-69
2021/08/24 00:05:29;;;;;;;11.17;3.20;;;;;;;17.07;60.36;98578.81;8386430;28;20238;-70
2021/08/24 00:09:33;;;;;;;5.27;3.67;;;;;;;17.06;60.31;98569.28;8386961;28;20200;-70
2021/08/24 00:13:36;;;;;;;4.60;3.40;;;;;;;17.01;60.60;98577.41;8386641;28;20385;-70
2021/08/24 00:17:38;;;;;;;7.27;3.57;;;;;;;17.00;60.19;98583.56;8386523;28;20200;-69
2021/08/24 00:21:43;;;;;;;5.60;3.77;;;;;;;16.98;60.46;98578.47;8386469;28;20421;-69
2021/08/24 00:25:48;;;;;;;9.03;4.27;;;;;;;16.97;60.39;98578.53;8386138;28;20207;-69
2021/08/24 00:29:50;;;;;;;8.37;3.83;;;;;;;16.93;60.44;98585.72;8386203;28;20208;-68
2021/08/24 00:33:53;;;;;;;6.07;3.60;;;;;;;16.96;60.49;98582.94;8386011;28;20219;-69
2021/08/24 00:37:57;;;;;;;9.10;3.90;;;;;;;16.94;60.69;98582.16;8385767;28;20538;-68
2021/08/24 00:42:00;;;;;;;4.67;3.57;;;;;;;16.86;60.45;98583.59;8385554;28;20231;-69
2021/08/24 00:46:14;;;;;;;8.13;3.77;;;;;;;16.92;60.39;98589.28;8385512;28;20200;-69
2021/08/24 00:50:26;;;;;;;5.23;3.33;;;;;;;16.92;60.07;98585.81;8385635;28;20227;-69
2021/08/24 00:54:31;;;;;;;5.27;3.93;;;;;;;16.85;60.38;98587.97;8385357;28;20199;-68
2021/08/24 00:58:33;;;;;;;8.67;3.87;;;;;;;16.85;59.87;98582.75;8384683;28;20211;-69
2021/08/24 01:02:36;;;;;;;4.10;3.70;;;;;;;16.88;60.29;98584.31;8374671;28;20259;-68
2021/08/24 01:06:43;;;;;;;7.60;4.10;;;;;;;16.85;60.09;98589.72;8384995;28;20199;-68
2021/08/24 01:10:54;;;;;;;6.40;3.93;;;;;;;16.80;59.89;98585.59;8384907;28;20200;-69
2021/08/24 01:15:03;;;;;;;7.23;3.63;;;;;;;16.84;59.71;98575.81;8384859;28;20199;-70
2021/08/24 01:19:33;;;;;;;5.27;4.00;;;;;;;16.74;59.66;98578.13;8384441;28;20214;-69
2021/08/24 01:23:48;;;;;;;6.73;4.60;;;;;;;16.73;60.11;98570.38;8384342;28;20232;-69
2021/08/24 01:28:05;;;;;;;7.57;4.27;;;;;;;16.61;60.26;98570.16;8384379;28;20204;-69
2021/08/24 01:32:20;;;;;;;4.90;4.10;;;;;;;16.51;61.04;98573.44;8384283;28;20208;-69
2021/08/24 01:36:27;;;;;;;6.50;4.07;;;;;;;16.53;60.77;98582.03;8384152;28;20242;-69
2021/08/24 01:40:37;;;;;;;4.00;3.70;;;;;;;16.70;60.34;98576.63;8384019;28;20199;-69
2021/08/24 01:44:47;;;;;;;6.30;3.97;;;;;;;16.61;60.72;98583.22;8383652;28;20238;-69
2021/08/24 01:48:53;;;;;;;5.20;3.60;;;;;;;16.65;60.64;98578.66;8383773;28;20200;-69
2021/08/24 01:53:00;;;;;;;8.00;3.97;;;;;;;16.61;60.94;98575.38;8383688;28;20226;-69
2021/08/24 01:57:05;;;;;;;4.90;4.13;;;;;;;16.72;60.77;98582.59;8383487;28;20199;-69
2021/08/24 02:01:10;;;;;;;8.47;3.90;;;;;;;16.74;60.97;98575.50;8383231;28;20199;-69
2021/08/24 02:05:16;;;;;;;8.93;3.57;;;;;;;16.74;60.97;98579.91;8383293;28;20580;-69
2021/08/24 02:09:26;;;;;;;5.67;4.03;;;;;;;16.72;61.13;98582.59;8382346;28;20207;-69
2021/08/24 02:13:32;;;;;;;4.97;3.90;;;;;;;16.71;61.39;98583.53;8383124;28;20397;-69
2021/08/24 02:17:36;;;;;;;8.37;4.30;;;;;;;16.77;61.25;98590.16;8382925;28;20209;-69
2021/08/24 02:21:43;;;;;;;5.83;3.97;;;;;;;16.65;61.10;98589.13;8382883;28;20237;-69
2021/08/24 02:25:48;;;;;;;5.33;4.23;;;;;;;16.79;61.03;98589.16;8383001;28;20199;-69
2021/08/24 02:29:50;;;;;;;6.17;4.20;;;;;;;16.77;61.04;98584.94;8383024;28;20506;-69
2021/08/24 02:33:56;;;;;;;4.50;3.87;;;;;;;16.73;61.29;98580.81;8382726;28;20226;-69
2021/08/24 02:38:02;;;;;;;5.27;3.77;;;;;;;16.69;61.49;98584.56;8382743;28;20231;-69
2021/08/24 02:42:12;;;;;;;6.40;4.33;;;;;;;16.79;60.89;98583.94;8382758;28;20227;-69
2021/08/24 02:46:18;;;;;;;4.60;3.80;;;;;;;16.81;60.75;98581.19;8382846;28;20207;-69
2021/08/24 02:50:21;;;;;;;5.77;3.87;;;;;;;16.69;61.13;98576.72;8382528;28;20213;-68
2021/08/24 02:54:26;;;;;;;7.27;3.87;;;;;;;16.73;61.14;98581.66;8382700;28;20506;-69
2021/08/24 02:58:30;;;;;;;5.90;3.93;;;;;;;16.77;61.23;98587.53;8382489;28;20526;-68
2021/08/24 03:02:33;;;;;;;5.77;4.03;;;;;;;16.71;61.07;98583.53;8382088;28;20250;-69
2021/08/24 03:06:38;;;;;;;6.93;3.90;;;;;;;16.65;61.45;98578.66;8382212;28;20208;-69
2021/08/24 03:10:44;;;;;;;6.27;4.03;;;;;;;16.72;61.42;98581.78;8382266;28;20211;-69
2021/08/24 03:14:52;;;;;;;7.17;3.60;;;;;;;16.80;61.15;98579.53;8382179;28;20483;-69
2021/08/24 03:18:57;;;;;;;4.27;3.50;;;;;;;16.71;61.37;98575.69;8383178;28;20218;-69
2021/08/24 03:23:00;;;;;;;6.87;3.70;;;;;;;16.54;61.93;98568.00;8388264;28;20231;-69
2021/08/24 03:27:06;;;;;;;4.03;3.63;;;;;;;16.51;61.14;98561.19;8388115;28;20226;-68
2021/08/24 03:31:14;;;;;;;6.77;3.50;;;;;;;16.45;60.87;98565.91;8388075;28;20483;-68
2021/08/24 03:35:18;;;;;;;7.50;3.80;;;;;;;16.45;61.16;98561.56;8387936;28;20204;-69
2021/08/24 03:39:21;;;;;;;7.13;3.67;;;;;;;16.49;60.89;98563.06;8387513;28;20227;-69
2021/08/24 03:43:23;;;;;;;6.63;3.30;;;;;;;16.42;60.46;98557.34;8387582;28;20250;-69
2021/08/24 03:47:28;;;;;;;4.90;3.30;;;;;;;16.44;61.00;98569.47;8387501;28;20210;-69
2021/08/24 03:51:30;;;;;;;4.77;3.50;;;;;;;16.64;60.49;98565.69;8387342;28;20207;-69
2021/08/24 03:55:33;;;;;;;4.90;3.00;;;;;;;16.46;60.33;98559.78;8387239;28;20207;-69
2021/08/24 03:59:36;;;;;;;3.77;3.07;;;;;;;16.39;60.76;98575.81;8387114;28;20234;-68
2021/08/24 04:03:40;;;;;;;4.83;3.03;;;;;;;16.57;60.18;98566.03;8386654;28;20242;-69
2021/08/24 04:07:46;;;;;;;6.30;2.93;;;;;;;16.35;60.56;98576.06;8386793;28;20199;-69
2021/08/24 04:11:48;;;;;;;5.17;2.77;;;;;;;16.48;60.61;98570.97;8386773;28;20203;-69
2021/08/24 04:15:51;;;;;;;5.90;3.27;;;;;;;16.49;60.09;98572.69;8386596;28;20234;-69
2021/08/24 04:19:55;;;;;;;4.83;3.50;;;;;;;16.51;60.00;98576.88;8386455;28;20510;-69
2021/08/24 04:23:58;;;;;;;5.07;2.87;;;;;;;16.36;60.46;98591.69;8386178;28;20538;-69
2021/08/24 04:28:01;;;;;;;3.93;3.00;;;;;;;16.59;59.85;98589.50;8386328;28;20204;-69
2021/08/24 04:32:05;;;;;;;5.70;2.70;;;;;;;16.71;59.70;98604.44;8385081;28;20208;-69
2021/08/24 04:36:09;;;;;;;4.17;2.90;;;;;;;16.48;60.00;98592.72;8385913;28;20226;-70
2021/08/24 04:40:12;;;;;;;4.07;2.97;;;;;;;16.60;59.67;98609.47;8385888;28;20204;-69
2021/08/24 04:44:15;;;;;;;4.13;2.93;;;;;;;16.69;59.51;98610.72;8385519;28;20231;-69
2021/08/24 04:48:19;;;;;;;5.57;2.83;;;;;;;16.68;58.92;98607.25;8385650;28;20199;-69
2021/08/24 04:52:23;;;;;;;6.30;3.30;;;;;;;16.74;59.29;98606.88;8385309;28;20203;-69
2021/08/24 04:56:25;;;;;;;5.37;3.20;;;;;;;16.82;58.91;98616.94;8385503;28;20204;-69
2021/08/24 05:00:28;;;;;;;5.43;3.10;;;;;;;16.83;59.25;98618.63;8385176;28;20216;-69
2021/08/24 05:04:31;;;;;;;5.07;2.97;;;;;;;16.85;59.50;98621.13;8384854;28;20243;-69
2021/08/24 05:08:35;;;;;;;5.30;3.33;;;;;;;16.79;59.61;98624.91;8384823;28;20204;-69
2021/08/24 05:12:39;;;;;;;4.53;3.20;;;;;;;16.79;59.55;98640.59;8384845;28;20544;-69
2021/08/24 05:16:42;;;;;;;7.47;2.80;;;;;;;16.92;58.86;98638.13;8384999;28;20200;-69
2021/08/24 05:20:44;;;;;;;4.33;3.00;;;;;;;16.82;59.12;98640.47;8384795;28;20506;-69
2021/08/24 05:24:49;;;;;;;4.20;2.87;;;;;;;16.93;59.04;98640.66;8384371;28;20573;-69
2021/08/24 05:28:51;;;;;;;6.20;3.27;;;;;;;16.97;59.24;98644.78;8384194;28;20199;-69
2021/08/24 05:32:55;;;;;;;6.43;2.90;;;;;;;16.97;59.26;98652.63;8384192;28;20204;-69
2021/08/24 05:36:58;;;;;;;6.93;3.30;;;;;;;16.89;59.22;98654.88;8383915;28;20223;-69
2021/08/24 05:41:03;;;;;;;7.10;3.10;;;;;;;16.95;59.21;98651.06;8383941;28;20390;-69
2021/08/24 05:45:07;;;;;;;4.20;2.80;;;;;;;16.97;59.01;98652.63;8383947;28;20227;-69
2021/08/24 05:49:10;;;;;;;4.30;3.10;;;;;;;16.97;59.26;98655.25;8383461;28;20203;-68
2021/08/24 05:53:13;;;;;;;6.00;3.27;;;;;;;16.98;59.19;98662.19;8383781;28;20394;-69
2021/08/24 05:57:18;;;;;;;5.50;3.10;;;;;;;16.99;59.73;98669.06;8383325;28;20204;-68
2021/08/24 06:01:23;;;;;;;5.40;3.33;;;;;;;17.04;59.59;98671.44;8383166;28;20202;-68
2021/08/24 06:05:26;;;;;;;4.60;2.90;;;;;;;17.00;59.38;98668.16;8382967;28;20250;-69
2021/08/24 06:09:28;;;;;;;4.20;3.07;;;;;;;16.99;59.54;98674.31;8383145;28;20534;-69
2021/08/24 06:13:32;;;;;;;6.27;2.70;;;;;;;17.14;58.89;98671.72;8383366;28;20211;-69
2021/08/24 06:17:35;;;;;;;4.40;2.70;;;;;;;17.18;58.72;98673.22;8382994;28;20215;-69
2021/08/24 06:21:39;;;;;;;6.63;3.20;;;;;;;17.29;58.94;98672.59;8382883;28;20203;-69
2021/08/24 06:25:42;;;;;;;6.27;3.23;;;;;;;17.24;59.02;98666.78;8382654;28;20223;-68
2021/08/24 06:29:46;;;;;;;7.17;3.07;;;;;;;17.36;58.59;98666.88;8382822;28;20483;-69
2021/08/24 06:33:49;;;;;;;6.60;3.03;;;;;;;17.46;58.56;98666.28;8382665;28;20208;-69
2021/08/24 06:37:52;;;;;;;6.20;3.40;;;;;;;17.44;59.24;98682.13;8382759;28;20420;-69
2021/08/24 06:41:55;;;;;;;5.00;3.17;;;;;;;17.66;58.16;98675.56;8382660;28;20486;-69
2021/08/24 06:45:59;;;;;;;5.13;3.00;;;;;;;17.56;58.98;98678.72;8382404;28;20230;-69
2021/08/24 06:50:02;;;;;;;4.90;2.83;;;;;;;17.82;58.55;98680.66;8382546;28;20211;-69
2021/08/24 06:54:06;;;;;;;3.60;3.13;;;;;;;17.67;58.50;98679.84;8384034;28;20211;-70
2021/08/24 06:58:10;;;;;;;4.87;3.40;;;;;;;17.87;58.77;98681.25;8388953;28;20199;-69
2021/08/24 07:02:14;;;;;;;5.50;3.03;;;;;;;17.74;58.87;98679.38;8388457;28;20199;-69
2021/08/24 07:06:18;;;;;;;5.07;3.17;;;;;;;17.70;59.20;98683.09;8388762;28;20261;-69
2021/08/24 07:10:23;;;;;;;5.40;3.23;;;;;;;17.69;59.51;98684.06;8388617;28;20200;-69
2021/08/24 07:14:26;;;;;;;4.60;3.27;;;;;;;17.51;59.52;98680.78;8388604;28;20215;-69
2021/08/24 07:18:30;;;;;;;7.30;3.63;;;;;;;17.49;60.14;98684.44;8388526;28;20199;-69
2021/08/24 07:22:33;;;;;;;10.77;3.87;;;;;;;17.75;59.97;98686.28;8388232;28;20199;-68
2021/08/24 07:26:35;;;;;;;4.93;3.50;;;;;;;17.99;58.80;98683.09;8388044;28;20254;-69
2021/08/24 07:30:39;;;;;;;5.77;3.80;;;;;;;18.07;58.48;98685.25;8388015;28;20200;-69
2021/08/24 07:34:43;;;;;;;6.47;4.33;;;;;;;18.24;58.27;98690.25;8387825;28;20208;-69
2021/08/24 07:38:46;;;;;;;5.10;3.73;;;;;;;18.23;58.53;98692.97;8387715;28;20227;-68
2021/08/24 07:42:49;;;;;;;5.57;4.17;;;;;;;18.42;58.32;98701.31;8387713;28;20206;-68
2021/08/24 07:46:52;;;;;;;7.13;3.67;;;;;;;18.20;58.80;98696.63;8387448;28;20231;-69
2021/08/24 07:50:56;;;;;;;5.60;4.37;;;;;;;18.29;59.08;98698.66;8387256;28;20231;-69
2021/08/24 07:54:59;;;;;;;5.53;4.10;;;;;;;18.15;59.43;98702.16;8387313;28;20266;-69
2021/08/24 07:59:02;;;;;;;5.13;3.77;;;;;;;18.22;59.04;98712.25;8387240;28;20483;-69
2021/08/24 08:03:04;;;;;;;6.60;3.70;;;;;;;18.31;58.92;98716.91;8386647;28;20239;-69
2021/08/24 08:07:09;;;;;;;6.23;3.77;;;;;;;18.26;58.80;98719.84;8385590;28;20222;-69
2021/08/24 08:11:12;;;;;;;6.87;4.20;;;;;;;18.12;59.22;98718.06;8386805;28;20200;-69
2021/08/24 08:15:15;;;;;;;4.73;3.77;;;;;;;18.27;58.82;98718.88;8386421;28;20210;-69
2021/08/24 08:19:18;;;;;;;4.73;4.10;;;;;;;18.30;58.79;98723.09;8386585;28;20514;-69
2021/08/24 08:23:23;;;;;;;5.20;3.83;;;;;;;18.27;58.66;98718.88;8386305;28;20200;-69
2021/08/24 08:27:25;;;;;;;5.33;4.37;;;;;;;18.20;58.94;98735.09;8386377;28;20390;-69
2021/08/24 08:31:28;;;;;;;7.10;4.20;;;;;;;18.59;58.95;98731.69;8386157;28;20200;-69
2021/08/24 08:35:31;;;;;;;8.27;4.30;;;;;;;18.39;59.92;98737.38;8385969;28;20208;-69
2021/08/24 08:39:36;;;;;;;7.67;4.27;;;;;;;18.74;58.08;98733.31;8385856;28;20207;-69
2021/08/24 08:43:42;;;;;;;6.40;3.80;;;;;;;18.96;58.18;98726.66;8385771;28;20238;-69
2021/08/24 08:47:53;;;;;;;6.33;4.40;;;;;;;19.04;57.96;98720.91;8385621;28;20207;-68
2021/08/24 08:52:02;;;;;;;7.57;4.40;;;;;;;19.31;57.66;98728.72;8385438;28;20204;-68
2021/08/24 08:56:12;;;;;;;7.27;4.70;;;;;;;19.32;56.80;98727.75;8385268;28;20207;-68
2021/08/24 09:00:18;;;;;;;5.73;4.70;;;;;;;19.52;56.73;98726.41;8385579;28;20204;-68
2021/08/24 09:04:24;;;;;;;7.17;4.77;;;;;;;19.84;56.17;98723.38;8384844;28;20259;-68
2021/08/24 09:08:28;;;;;;;7.03;4.90;;;;;;;20.68;54.32;98706.75;8385190;28;20370;-68
2021/08/24 09:12:33;;;;;;;6.60;5.00;;;;;;;20.66;53.50;98707.84;8384879;28;20399;-68
2021/08/24 09:16:37;;;;;;;7.23;4.90;;;;;;;20.28;53.71;98703.56;8384217;28;20275;-68
2021/08/24 09:20:57;;;;;;;6.37;5.20;;;;;;;19.87;55.73;98713.44;8384608;28;20200;-68
2021/08/24 09:25:02;;;;;;;7.07;4.70;;;;;;;20.13;55.19;98710.78;8384503;28;20233;-68
2021/08/24 09:29:07;;;;;;;7.90;5.50;;;;;;;20.18;54.90;98703.41;8384399;28;20214;-68
2021/08/24 09:33:10;;;;;;;5.50;4.77;;;;;;;20.83;53.33;98702.16;8384036;28;20204;-68
2021/08/24 09:37:16;;;;;;;8.47;5.50;;;;;;;20.68;52.40;98701.50;8384056;28;20226;-68
2021/08/24 09:41:23;;;;;;;6.40;5.77;;;;;;;20.48;51.79;98699.47;8384061;28;20201;-68
2021/08/24 09:45:29;;;;;;;8.17;5.23;;;;;;;20.99;52.38;98704.47;8383954;28;20228;-68
2021/08/24 09:49:36;;;;;;;7.53;5.70;;;;;;;20.39;53.41;98694.88;8384140;28;20202;-68
2021/08/24 09:53:39;;;;;;;8.33;6.10;;;;;;;20.29;51.65;98698.16;8383889;28;20222;-68
2021/08/24 09:57:49;;;;;;;6.80;6.03;;;;;;;20.78;51.76;98690.28;8383403;28;20203;-68
2021/08/24 10:01:53;;;;;;;9.03;6.07;;;;;;;20.65;51.90;98695.63;8383343;28;20199;-68
2021/08/24 10:06:03;;;;;;;7.70;6.00;;;;;;;20.88;50.89;98701.81;8383210;28;20343;-68
2021/08/24 10:10:09;;;;;;;6.57;5.50;;;;;;;22.15;48.51;98703.44;8383437;28;20393;-68
2021/08/24 10:14:21;;;;;;;7.87;5.80;;;;;;;22.14;48.36;98699.13;8383057;28;20284;-68
2021/08/24 10:18:29;;;;;;;7.60;5.93;;;;;;;22.42;46.25;98698.59;8383008;28;20215;-68
2021/08/24 10:22:33;;;;;;;6.00;5.40;;;;;;;22.49;47.71;98706.03;8383110;28;20244;-68
2021/08/24 10:26:37;;;;;;;8.90;6.13;;;;;;;22.34;45.96;98694.91;8382767;28;20224;-68
2021/08/24 10:30:46;;;;;;;9.10;5.47;;;;;;;22.83;46.17;98697.00;8382077;28;20226;-68
2021/08/24 10:34:50;;;;;;;5.90;5.27;;;;;;;23.26;44.16;98699.66;8382878;28;20239;-68
2021/08/24 10:38:57;;;;;;;6.47;5.73;;;;;;;23.71;44.31;98700.13;8382572;28;20220;-68
2021/08/24 10:43:19;;;;;;;8.27;4.97;;;;;;;23.56;44.67;98693.53;8382667;28;20199;-68
2021/08/24 10:47:26;;;;;;;7.37;4.73;;;;;;;23.57;44.59;98703.13;8369101;28;20223;-68
2021/08/24 10:51:48;;;;;;;6.10;4.80;;;;;;;22.94;46.89;98695.25;8382697;28;20204;-68
2021/08/24 10:55:55;;;;;;;5.80;5.00;;;;;;;23.55;44.92;98702.41;8382519;28;20203;-67
2021/08/24 11:00:04;;;;;;;5.50;4.80;;;;;;;22.67;46.81;98715.06;8382507;28;20199;-68
2021/08/24 11:04:16;;;;;;;5.47;4.57;;;;;;;21.95;47.71;98708.53;8381920;28;20561;-67
2021/08/24 11:08:29;;;;;;;5.53;4.90;;;;;;;22.02;48.74;98714.13;8382220;28;20212;-68
2021/08/24 11:12:40;;;;;;;5.83;4.40;;;;;;;22.04;49.69;98720.13;8382393;28;20210;-68
2021/08/24 11:16:49;;;;;;;7.67;5.53;;;;;;;21.79;49.59;98724.69;8382072;28;20211;-68
2021/08/24 11:21:01;;;;;;;6.27;5.27;;;;;;;21.55;49.48;98719.56;8382350;28;20382;-68
2021/08/24 11:25:16;;;;;;;5.80;5.30;;;;;;;21.44;49.90;98720.38;8382141;28;20227;-68
2021/08/24 11:29:28;;;;;;;6.70;5.37;;;;;;;21.69;49.84;98726.38;8382012;28;20212;-67
2021/08/24 11:33:33;;;;;;;6.07;5.10;;;;;;;21.64;48.99;98724.09;8381923;28;20503;-67
2021/08/24 11:37:40;;;;;;;6.17;5.30;;;;;;;21.50;50.24;98734.88;8381661;28;20223;-67
2021/08/24 11:41:45;;;;;;;5.60;4.53;;;;;;;21.59;49.23;98734.19;8385705;28;20272;-68
2021/08/24 11:45:51;;;;;;;5.17;4.73;;;;;;;21.56;48.29;98737.03;8387709;28;20531;-67
2021/08/24 11:49:57;;;;;;;6.03;4.47;;;;;;;21.35;49.80;98736.03;8387728;28;20201;-67
2021/08/24 11:54:06;;;;;;;10.37;4.90;;;;;;;21.59;49.59;98734.19;8387280;28;20213;-67
2021/08/24 11:58:16;;;;;;;6.57;4.70;;;;;;;21.71;48.36;98737.66;8387190;28;20207;-67
2021/08/24 12:02:24;;;;;;;7.93;4.67;;;;;;;22.75;46.92;98733.75;8386830;28;20498;-68
2021/08/24 12:06:31;;;;;;;6.93;5.00;;;;;;;22.43;46.68;98731.94;8387038;28;20231;-68
2021/08/24 12:10:36;;;;;;;5.43;4.30;;;;;;;22.79;45.71;98737.81;8387105;28;20223;-67
2021/08/24 12:14:47;;;;;;;4.93;4.43;;;;;;;23.12;43.53;98735.16;8386767;28;20207;-68
2021/08/24 12:18:50;;;;;;;5.93;4.07;;;;;;;23.25;42.83;98738.44;8386610;28;20203;-68
2021/08/24 12:22:55;;;;;;;4.87;4.00;;;;;;;23.16;44.89;98731.28;8386417;28;20204;-68
2021/08/24 12:27:32;;;;;;;5.23;4.10;;;;;;;23.13;44.37;98736.81;8386222;28;20238;-68
2021/08/24 12:31:42;;;;;;;4.23;3.70;;;;;;;23.38;44.03;98743.50;8386148;28;20211;-67
2021/08/24 12:35:45;;;;;;;4.63;3.83;;;;;;;23.29;44.56;98739.03;8386004;28;20227;-68
2021/08/24 12:39:48;;;;;;;7.23;3.83;;;;;;;22.81;46.04;98748.25;8386008;28;20211;-69
2021/08/24 12:43:51;;;;;;;7.03;4.47;;;;;;;22.31;46.03;98743.47;8385897;28;20363;-70
2021/08/24 12:48:13;;;;;;;7.00;4.17;;;;;;;22.14;46.81;98743.97;8385724;28;20420;-68
2021/08/24 12:52:32;;;;;;;8.97;4.20;;;;;;;22.19;47.23;98742.63;8384888;28;20213;-69
2021/08/24 12:56:42;;;;;;;6.37;4.30;;;;;;;22.25;47.61;98743.97;8385580;28;20211;-69
2021/08/24 13:01:09;;;;;;;9.83;5.00;;;;;;;22.06;47.77;98745.41;8385546;28;20202;-69
2021/08/24 13:05:24;;;;;;;9.50;5.17;;;;;;;21.79;47.67;98748.41;8385131;28;20426;-68
2021/08/24 13:09:31;;;;;;;6.73;5.10;;;;;;;21.91;48.30;98751.06;8384719;28;20200;-69
2021/08/24 13:13:55;;;;;;;7.97;4.57;;;;;;;22.09;49.17;98744.34;8384847;28;20200;-69
2021/08/24 13:18:02;;;;;;;9.40;4.60;;;;;;;22.29;47.46;98740.13;8384842;28;20204;-69
2021/08/24 13:22:09;;;;;;;5.63;4.47;;;;;;;22.96;45.46;98735.56;8384503;28;20206;-69
2021/08/24 13:26:15;;;;;;;9.33;4.93;;;;;;;22.51;46.86;98738.41;8384518;28;20231;-68
2021/08/24 13:30:25;;;;;;;7.70;4.63;;;;;;;22.19;47.26;98744.44;8383065;28;20195;-71
2021/08/24 13:34:34;;;;;;;7.90;5.07;;;;;;;21.95;48.68;98745.44;8383766;28;20215;-67
2021/08/24 13:38:44;;;;;;;10.13;5.23;;;;;;;21.74;48.45;98741.84;8383992;28;20228;-69
2021/08/24 13:42:48;;;;;;;20.87;8.30;;;;;;;21.62;48.76;98747.09;8384005;28;20207;-69
2021/08/24 13:47:00;;;;;;;8.00;5.30;;;;;;;21.53;48.31;98737.25;8383822;28;20409;-76
2021/08/24 13:51:12;;;;;;;9.93;5.53;;;;;;;21.72;49.28;98736.66;8383598;28;20234;-76
2021/08/24 13:55:26;;;;;;;7.80;5.43;;;;;;;22.24;48.17;98742.28;8383365;28;20218;-72
2021/08/24 13:59:32;;;;;;;7.30;5.80;;;;;;;22.55;47.18;98730.09;8383720;28;20200;-66
2021/08/24 14:03:43;;;;;;;7.73;5.33;;;;;;;23.07;45.41;98732.06;8383210;28;20266;-70
2021/08/24 14:07:52;;;;;;;10.03;5.53;;;;;;;23.40;45.43;98729.22;8383453;28;20227;-71
2021/08/24 14:12:00;;;;;;;8.13;5.23;;;;;;;23.35;45.17;98728.75;8383202;28;20213;-69
2021/08/24 14:16:03;;;;;;;11.10;5.93;;;;;;;23.31;44.86;98734.44;8383096;28;20384;-73
2021/08/24 14:20:11;;;;;;;6.90;5.73;;;;;;;23.60;44.57;98729.31;8382915;28;20203;-71
2021/08/24 14:24:16;;;;;;;9.77;5.27;;;;;;;23.26;45.37;98732.19;8382960;28;20202;-70
2021/08/24 14:28:24;;;;;;;11.37;5.90;;;;;;;22.72;46.31;98727.88;8382829;28;20228;-72
2021/08/24 14:32:33;;;;;;;10.03;5.73;;;;;;;22.62;47.65;98735.72;8382889;28;20203;-71
2021/08/24 14:36:38;;;;;;;11.50;5.53;;;;;;;22.50;48.40;98736.72;8383047;28;20224;-73
2021/08/24 14:40:40;;;;;;;6.50;5.80;;;;;;;22.08;47.37;98734.72;8382612;28;20207;-72
2021/08/24 14:44:45;;;;;;;8.30;5.37;;;;;;;21.91;47.85;98736.06;8382538;28;20208;-71
2021/08/24 14:48:51;;;;;;;11.23;5.27;;;;;;;21.99;47.91;98736.31;8382540;28;20559;-72
2021/08/24 14:52:56;;;;;;;6.50;5.27;;;;;;;21.88;48.65;98736.34;8382577;28;20209;-72
2021/08/24 14:57:24;;;;;;;5.93;5.27;;;;;;;21.81;48.94;98737.75;8382466;28;20301;-72
2021/08/24 15:01:28;;;;;;;8.40;5.50;;;;;;;21.44;48.41;98738.00;8382356;28;20199;-64
2021/08/24 15:05:35;;;;;;;7.87;5.70;;;;;;;21.60;49.05;98735.84;8382288;28;20236;-64
2021/08/24 15:09:49;;;;;;;12.37;4.83;;;;;;;21.75;49.20;98735.63;8382428;28;20203;-65
2021/08/24 15:14:00;;;;;;;9.80;4.93;;;;;;;21.74;48.24;98742.69;8382223;28;20242;-65
2021/08/24 15:18:05;;;;;;;6.67;5.10;;;;;;;21.77;48.70;98736.34;8388511;28;20207;-64
2021/08/24 15:22:21;;;;;;;7.00;4.97;;;;;;;21.81;47.52;98732.50;8388507;28;20203;-64
2021/08/24 15:26:24;;;;;;;5.87;5.27;;;;;;;21.78;48.36;98738.84;8388413;28;20409;-64
2021/08/24 15:30:27;;;;;;;8.90;5.20;;;;;;;21.89;48.36;98734.53;8388319;28;20203;-64
2021/08/24 15:34:31;;;;;;;9.13;5.53;;;;;;;21.71;48.19;98737.66;8387961;28;20217;-64
2021/08/24 15:38:35;;;;;;;6.17;5.27;;;;;;;21.63;48.08;98738.25;8387908;28;20647;-64
2021/08/24 15:42:38;;;;;;;7.47;5.73;;;;;;;21.44;48.63;98741.47;8387945;28;20200;-64
2021/08/24 15:46:43;;;;;;;7.07;5.23;;;;;;;21.43;48.55;98744.19;8387813;28;20250;-64
2021/08/24 15:50:46;;;;;;;10.40;5.87;;;;;;;21.26;48.98;98741.03;8387670;28;20211;-64
2021/08/24 15:54:50;;;;;;;9.23;5.70;;;;;;;21.25;49.19;98747.28;8387411;28;20202;-65
2021/08/24 15:58:53;;;;;;;11.47;6.07;;;;;;;21.13;48.88;98750.81;8387239;28;20208;-65
2021/08/24 16:02:56;;;;;;;6.40;5.80;;;;;;;21.09;48.81;98749.38;8386891;28;20262;-65
2021/08/24 16:07:00;;;;;;;7.50;6.00;;;;;;;21.25;48.75;98749.06;8386994;28;20639;-66
2021/08/24 16:11:05;;;;;;;7.37;5.40;;;;;;;21.23;48.31;98738.66;8386954;28;20204;-66
2021/08/24 16:15:09;;;;;;;7.10;6.40;;;;;;;21.12;48.91;98743.06;8386751;28;20203;-66
2021/08/24 16:19:15;;;;;;;12.30;6.70;;;;;;;21.05;48.85;98746.13;8386704;28;20203;-66
2021/08/24 16:23:18;;;;;;;12.47;5.87;;;;;;;21.20;49.12;98741.50;8386572;28;20203;-66
2021/08/24 16:27:21;;;;;;;7.87;5.90;;;;;;;21.14;48.79;98736.72;8385119;28;20234;-66
2021/08/24 16:31:24;;;;;;;6.63;5.60;;;;;;;21.29;48.81;98735.53;8386026;28;20203;-66
2021/08/24 16:35:32;;;;;;;6.03;5.43;;;;;;;21.18;49.04;98738.16;8386034;28;20529;-66
2021/08/24 16:39:35;;;;;;;7.57;6.27;;;;;;;21.17;49.32;98738.25;8386193;28;20500;-66
2021/08/24 16:43:40;;;;;;;7.70;5.77;;;;;;;21.37;48.88;98740.22;8385933;28;20199;-65
2021/08/24 16:47:42;;;;;;;6.90;6.30;;;;;;;21.32;49.29;98737.09;8385645;28;20238;-67
2021/08/24 16:51:46;;;;;;;10.53;6.87;;;;;;;21.02;50.04;98735.00;8385683;28;20206;-69
2021/08/24 16:55:50;;;;;;;11.67;5.90;;;;;;;20.91;49.63;98737.59;8385341;28;20206;-66
2021/08/24 16:59:52;;;;;;;6.57;5.40;;;;;;;20.93;49.10;98733.06;8385151;28;20207;-66
2021/08/24 17:03:56;;;;;;;8.80;5.60;;;;;;;21.08;49.60;98734.53;8384264;28;20243;-66
2021/08/24 17:08:01;;;;;;;11.10;5.93;;;;;;;21.00;49.37;98727.22;8385009;28;20228;-66
2021/08/24 17:12:04;;;;;;;9.70;6.00;;;;;;;20.91;49.39;98727.91;8385092;28;20199;-65
2021/08/24 17:16:08;;;;;;;8.10;5.77;;;;;;;20.89;49.47;98737.72;8384859;28;20210;-66
2021/08/24 17:20:12;;;;;;;39.93;18.03;;;;;;;20.78;50.02;98746.41;8384775;28;20218;-66
2021/08/24 17:24:16;;;;;;;31.87;16.60;;;;;;;20.78;50.67;98746.41;8384589;28;20199;-66
2021/08/24 17:28:21;;;;;;;13.30;8.27;;;;;;;20.73;50.27;98750.31;8384362;28;20515;-66
2021/08/24 17:32:25;;;;;;;13.20;8.13;;;;;;;20.63;50.76;98745.72;8384374;28;20206;-66
2021/08/24 17:36:28;;;;;;;11.23;7.50;;;;;;;20.65;51.24;98743.00;8384269;28;20221;-66
2021/08/24 17:40:34;;;;;;;9.93;6.13;;;;;;;20.68;50.80;98746.25;8383922;28;20246;-66
2021/08/24 17:44:37;;;;;;;7.13;6.10;;;;;;;20.69;50.36;98749.69;8383968;28;20207;-66
2021/08/24 17:48:46;;;;;;;7.80;5.50;;;;;;;20.58;50.93;98749.63;8383718;28;20580;-71
2021/08/24 17:52:49;;;;;;;7.87;6.13;;;;;;;20.48;51.81;98757.34;8383829;28;20203;-71
2021/08/24 17:56:53;;;;;;;6.53;5.00;;;;;;;20.36;51.50;98756.44;8383702;28;20276;-70
2021/08/24 18:00:59;;;;;;;7.57;5.47;;;;;;;20.31;51.92;98762.06;8383690;28;20369;-71
2021/08/24 18:05:02;;;;;;;7.10;5.40;;;;;;;20.20;52.23;98764.59;8350617;28;20535;-71
2021/08/24 18:09:06;;;;;;;8.13;5.77;;;;;;;19.91;53.26;98761.38;8350082;28;20224;-71
2021/08/24 18:13:10;;;;;;;6.23;5.63;;;;;;;20.08;52.22;98761.03;8350207;28;20205;-71
2021/08/24 18:17:12;;;;;;;6.07;5.47;;;;;;;20.02;52.59;98756.22;8350191;28;20228;-70
2021/08/24 18:21:15;;;;;;;8.40;5.57;;;;;;;19.97;53.32;98758.34;8349946;28;20201;-71
2021/08/24 18:25:21;;;;;;;8.50;5.83;;;;;;;19.78;53.34;98764.06;8349888;28;20245;-70
2021/08/24 18:29:25;;;;;;;8.33;5.70;;;;;;;19.81;53.39;98770.88;8350067;28;20233;-72
2021/08/24 18:33:28;;;;;;;6.50;5.47;;;;;;;19.79;53.63;98760.47;8350044;28;20219;-71
2021/08/24 18:37:33;;;;;;;5.97;5.27;;;;;;;19.67;53.53;98761.28;8349512;28;20224;-71
2021/08/24 18:41:41;;;;;;;22.20;6.10;;;;;;;19.73;53.76;98766.16;8349962;28;20215;-70
2021/08/24 18:45:47;;;;;;;6.47;5.50;;;;;;;19.70;53.73;98763.69;8349790;28;20213;-72
2021/08/24 18:49:50;;;;;;;9.27;5.37;;;;;;;19.60;54.05;98768.75;8350606;28;20235;-70
2021/08/24 18:53:54;;;;;;;6.10;5.03;;;;;;;19.56;53.98;98771.69;8356370;28;20383;-70
2021/08/24 18:57:57;;;;;;;7.00;5.10;;;;;;;19.52;53.91;98771.91;8356060;28;20492;-70
2021/08/24 19:02:01;;;;;;;5.47;4.97;;;;;;;19.49;54.04;98771.25;8364444;28;20223;-70
2021/08/24 19:06:04;;;;;;;5.43;4.93;;;;;;;19.46;53.57;98769.69;8388775;28;20228;-70
2021/08/24 19:10:07;;;;;;;8.63;5.10;;;;;;;19.43;53.84;98769.91;8388746;28;20235;-70
2021/08/24 19:14:21;;;;;;;19.13;5.63;;;;;;;19.34;53.96;98760.00;8388782;28;20280;-70